• Join FlightAware (Why Join?)
  • Login
  • US Flag 
03:38AM EDT


 

Airport Tracker/Info


-or-


 

Live Flight TrackerFlight Track Log ✈ SKW5631 ✈ 30-Apr-2013 ✈ KSFO - KSBA

Flight Track Log - Related Links

Times and Time Zones

All times are in EDT time to prevent confusion due to time zone crossing. See the SKW5631 flight status page for this flight to view local times or setup timezone preferences in your user account.

Time Position Orientation Groundspeed Altitude Reporting Facility
EDT Latitude Longitude Course Direction KTS MPH feet Rate Location/Type
10:24AM 37.6333 -122.3667 358° North 137 158 1,100  Level Northern Cal TRACON
10:25AM 37.6572 -122.3678 358° North 131 151 2,600 1,920 Climbing Oakland Center
10:26AM 37.6500 -122.4167 259° West 212 244 4,800 1,680 Climbing Northern Cal TRACON
10:27AM 37.5981 -122.4125 176° South 198 228 6,100 1,560 Climbing Oakland Center
10:28AM 37.5358 -122.4147 182° South 218 251 7,900 1,800 Climbing Oakland Center
10:29AM 37.4764 -122.4208 185° South 218 251 9,800 1,680 Climbing Oakland Center
10:30AM 37.4136 -122.4197 179° South 225 259 11,400 1,500 Climbing Oakland Center
10:31AM 37.3322 -122.4261 184° South 244 281 12,900 1,440 Climbing Oakland Center
10:32AM 37.2656 -122.4283 182° South 240 276 14,400 1,320 Climbing Oakland Center
10:33AM 37.2006 -122.4322 183° South 235 270 15,600 1,200 Climbing Oakland Center
10:34AM 37.1347 -122.4353 182° South 238 274 16,900 1,020 Climbing Oakland Center
10:35AM 37.0675 -122.4206 170° South 263 303 17,800 960 Climbing Oakland Center
10:36AM 37.0094 -122.3617 141° Southeast 269 310 18,900 1,200 Climbing Oakland Center
10:37AM 36.9486 -122.3078 145° Southeast 270 311 20,300 1,140 Climbing Oakland Center
10:38AM 36.8875 -122.2550 145° Southeast 270 311 21,300 840 Climbing Oakland Center
10:39AM 36.8239 -122.2031 147° Southeast 275 316 22,100 780 Climbing Oakland Center
10:40AM 36.7597 -122.1456 144° Southeast 282 325 22,900 420 Climbing Oakland Center
10:41AM 36.6756 -122.0767 147° Southeast 303 349 23,000  Climbing Oakland Center
10:42AM 36.6047 -122.0192 147° Southeast 305 351 23,000  Level Oakland Center
10:43AM 36.5314 -121.9694 151° Southeast 301 346 23,000  Level Oakland Center
10:44AM 36.4567 -121.9192 152° Southeast 306 352 23,000  Level Oakland Center
10:45AM 36.3847 -121.8683 150° Southeast 300 345 23,000  Level Oakland Center
10:46AM 36.3119 -121.8194 152° Southeast 298 343 23,000  Level Oakland Center
10:47AM 36.2367 -121.7672 151° Southeast 299 344 23,000  Level Oakland Center
10:48AM 36.1692 -121.7106 146° Southeast 294 338 23,000  Level Oakland Center
10:49AM 36.1072 -121.6433 139° Southeast 297 342 23,000 -60 Level Oakland Center
10:50AM 36.0444 -121.5775 140° Southeast 296 341 22,900  Descending Oakland Center
10:51AM 35.9811 -121.5142 141° Southeast 294 338 23,000  Climbing Oakland Center
10:52AM 35.9178 -121.4500 141° Southeast 294 338 23,000  Level Oakland Center
10:53AM 35.8422 -121.3742 141° Southeast 293 337 23,000  Level Oakland Center
10:54AM 35.7789 -121.3106 141° Southeast 294 338 23,000  Level Oakland Center
10:56AM 35.7006 -121.2277 139° Southeast  Level FlightAware Approximate
11:03AM 35.2988 -120.8301 138° Southeast  Level FlightAware Approximate
11:04AM 35.2442 -120.7694 138° Southeast  Level FlightAware Approximate
11:05AM 35.1896 -120.7087 138° Southeast  Level FlightAware Approximate
11:06AM 35.1319 -120.6528 144° Southeast  Level FlightAware Approximate
11:07AM 35.0719 -120.6002 144° Southeast  Level FlightAware Approximate
11:08AM 35.0120 -120.5478 144° Southeast  Level FlightAware Approximate
11:09AM 34.9520 -120.4954 144° Southeast  Level FlightAware Approximate
11:10AM 34.8929 -120.4418 137° Southeast  Level FlightAware Approximate
11:11AM 34.8391 -120.3803 137° Southeast  Level FlightAware Approximate
11:12AM 34.7853 -120.3189 137° Southeast  Level FlightAware Approximate
11:13AM 34.7229 -120.2713 148° Southeast  Level FlightAware Approximate
11:14AM 34.6601 -120.2242 148° Southeast  Level FlightAware Approximate
11:15AM 34.6022 -120.1689 141° Southeast  Level FlightAware Approximate
11:16AM 34.5504 -120.1086 148° Southeast  Level FlightAware Approximate
11:17AM 34.4825 -120.0833 180° South  Level FlightAware Approximate
11:18AM 34.4167 -120.0738 90° East  Level FlightAware Approximate
11:19AM 34.4167 -119.9844 90° East  Level FlightAware Approximate
11:20AM 34.4167 -119.8950 90° East  Level FlightAware Approximate
11:21AM 34.4167 -119.8333 90° East  Level FlightAware Approximate
11:22AM 34.4262 -119.8415 90° East  Level Estimated
11:23AM 34.4262 -119.8415 90° East  Level Estimated
11:24AM 34.4262 -119.8415 90° East  Level Estimated
11:25AM 34.4262 -119.8415 90° East  Level Estimated
11:26AM 34.4262 -119.8415 90° East  Level Estimated
11:27AM 34.4262 -119.8415 90° East  Level Estimated
11:28AM 34.4262 -119.8415 90° East  Level Estimated
11:29AM 34.4262 -119.8415 90° East  Level Estimated
11:30AM 34.4262 -119.8415 90° East  Level Estimated
11:31AM 34.4262 -119.8415 90° East  Level Estimated
11:32AM 34.4262 -119.8415 90° East  Level Estimated
11:33AM 34.4262 -119.8415 90° East  Level Estimated
11:34AM 34.4262 -119.8415 90° East  Level Estimated
11:35AM 34.4262 -119.8415 90° East  Level Estimated
11:36AM 34.4262 -119.8415 90° East  Level Estimated
11:37AM 34.4262 -119.8415 90° East  Level Estimated
11:38AM 34.4262 -119.8415 90° East  Level Estimated